sensor_id;sensor_type;location;lat;lon;timestamp;pressure;altitude;pressure_sealevel;temperature
29701;BMP280;57917;51.380;-0.176;2023-09-07T00:04:35;101582.88;;;22.14
29701;BMP280;57917;51.380;-0.176;2023-09-07T00:10:23;101596.50;;;22.30
29701;BMP280;57917;51.380;-0.176;2023-09-07T00:16:10;101586.44;;;22.06
29701;BMP280;57917;51.380;-0.176;2023-09-07T00:21:57;101577.94;;;22.17
29701;BMP280;57917;51.380;-0.176;2023-09-07T00:27:44;101590.59;;;22.04
29701;BMP280;57917;51.380;-0.176;2023-09-07T00:33:31;101582.16;;;21.93
29701;BMP280;57917;51.380;-0.176;2023-09-07T00:39:18;101596.19;;;21.87
29701;BMP280;57917;51.380;-0.176;2023-09-07T00:45:08;101589.81;;;22.03
29701;BMP280;57917;51.380;-0.176;2023-09-07T00:50:55;101576.78;;;22.05
29701;BMP280;57917;51.380;-0.176;2023-09-07T00:56:42;101576.78;;;22.05
29701;BMP280;57917;51.380;-0.176;2023-09-07T01:02:29;101580.06;;;22.11
29701;BMP280;57917;51.380;-0.176;2023-09-07T01:08:25;101580.19;;;22.27
29701;BMP280;57917;51.380;-0.176;2023-09-07T01:14:17;101567.38;;;22.24
29701;BMP280;57917;51.380;-0.176;2023-09-07T01:20:06;101574.34;;;22.13
29701;BMP280;57917;51.380;-0.176;2023-09-07T01:25:56;101572.00;;;21.78
29701;BMP280;57917;51.380;-0.176;2023-09-07T01:31:43;101570.56;;;21.81
29701;BMP280;57917;51.380;-0.176;2023-09-07T01:37:30;101565.22;;;21.60
29701;BMP280;57917;51.380;-0.176;2023-09-07T01:43:17;101580.38;;;21.65
29701;BMP280;57917;51.380;-0.176;2023-09-07T01:49:04;101583.53;;;21.34
29701;BMP280;57917;51.380;-0.176;2023-09-07T01:54:51;101569.09;;;21.71
29701;BMP280;57917;51.380;-0.176;2023-09-07T02:00:38;101567.31;;;21.75
29701;BMP280;57917;51.380;-0.176;2023-09-07T02:06:26;101550.81;;;21.56
29701;BMP280;57917;51.380;-0.176;2023-09-07T02:12:15;101553.91;;;21.14
29701;BMP280;57917;51.380;-0.176;2023-09-07T02:18:05;101556.59;;;21.14
29701;BMP280;57917;51.380;-0.176;2023-09-07T02:23:54;101534.78;;;21.27
29701;BMP280;57917;51.380;-0.176;2023-09-07T02:29:41;101533.25;;;21.38
29701;BMP280;57917;51.380;-0.176;2023-09-07T02:35:29;101526.75;;;21.39
29701;BMP280;57917;51.380;-0.176;2023-09-07T02:41:18;101527.88;;;21.38
29701;BMP280;57917;51.380;-0.176;2023-09-07T02:47:05;101530.56;;;21.38
29701;BMP280;57917;51.380;-0.176;2023-09-07T02:52:52;101532.97;;;20.99
29701;BMP280;57917;51.380;-0.176;2023-09-07T02:58:39;101535.59;;;21.07
29701;BMP280;57917;51.380;-0.176;2023-09-07T03:04:27;101531.78;;;21.08
29701;BMP280;57917;51.380;-0.176;2023-09-07T03:10:16;101525.06;;;21.14
29701;BMP280;57917;51.380;-0.176;2023-09-07T03:16:04;101519.13;;;21.21
29701;BMP280;57917;51.380;-0.176;2023-09-07T03:21:52;101507.88;;;21.39
29701;BMP280;57917;51.380;-0.176;2023-09-07T03:27:39;101500.41;;;21.24
29701;BMP280;57917;51.380;-0.176;2023-09-07T03:33:29;101514.50;;;21.09
29701;BMP280;57917;51.380;-0.176;2023-09-07T03:39:16;101505.91;;;21.16
29701;BMP280;57917;51.380;-0.176;2023-09-07T03:45:05;101509.03;;;20.97
29701;BMP280;57917;51.380;-0.176;2023-09-07T03:50:53;101499.47;;;20.88
29701;BMP280;57917;51.380;-0.176;2023-09-07T03:56:41;101507.53;;;20.67
29701;BMP280;57917;51.380;-0.176;2023-09-07T04:02:29;101509.69;;;20.74
29701;BMP280;57917;51.380;-0.176;2023-09-07T04:08:16;101504.78;;;20.76
29701;BMP280;57917;51.380;-0.176;2023-09-07T04:14:05;101497.47;;;20.76
29701;BMP280;57917;51.380;-0.176;2023-09-07T04:19:52;101494.50;;;20.69
29701;BMP280;57917;51.380;-0.176;2023-09-07T04:25:39;101503.00;;;20.59
29701;BMP280;57917;51.380;-0.176;2023-09-07T04:31:27;101497.13;;;20.57
29701;BMP280;57917;51.380;-0.176;2023-09-07T04:37:14;101488.63;;;20.55
29701;BMP280;57917;51.380;-0.176;2023-09-07T04:43:01;101478.38;;;20.40
29701;BMP280;57917;51.380;-0.176;2023-09-07T04:48:48;101477.63;;;20.31
29701;BMP280;57917;51.380;-0.176;2023-09-07T04:54:36;101465.50;;;20.25
29701;BMP280;57917;51.380;-0.176;2023-09-07T05:00:23;101472.91;;;20.28
29701;BMP280;57917;51.380;-0.176;2023-09-07T05:06:11;101467.53;;;19.91
29701;BMP280;57917;51.380;-0.176;2023-09-07T05:11:59;101470.69;;;20.01
29701;BMP280;57917;51.380;-0.176;2023-09-07T05:17:46;101482.72;;;19.95
29701;BMP280;57917;51.380;-0.176;2023-09-07T05:23:35;101490.31;;;19.93
29701;BMP280;57917;51.380;-0.176;2023-09-07T05:29:23;101485.16;;;19.71
29701;BMP280;57917;51.380;-0.176;2023-09-07T05:35:13;101482.09;;;19.81
29701;BMP280;57917;51.380;-0.176;2023-09-07T05:41:03;101482.66;;;19.49
29701;BMP280;57917;51.380;-0.176;2023-09-07T05:46:50;101490.81;;;19.87
29701;BMP280;57917;51.380;-0.176;2023-09-07T05:52:37;101483.66;;;19.99
29701;BMP280;57917;51.380;-0.176;2023-09-07T05:58:25;101498.06;;;20.32
29701;BMP280;57917;51.380;-0.176;2023-09-07T06:04:15;101483.47;;;20.62
29701;BMP280;57917;51.380;-0.176;2023-09-07T06:10:02;101469.41;;;20.36
29701;BMP280;57917;51.380;-0.176;2023-09-07T06:15:52;101493.06;;;20.22
29701;BMP280;57917;51.380;-0.176;2023-09-07T06:21:42;101486.50;;;20.32
29701;BMP280;57917;51.380;-0.176;2023-09-07T06:27:31;101486.50;;;20.32
29701;BMP280;57917;51.380;-0.176;2023-09-07T06:33:19;101484.81;;;20.48
29701;BMP280;57917;51.380;-0.176;2023-09-07T06:39:06;101500.53;;;20.66
29701;BMP280;57917;51.380;-0.176;2023-09-07T06:44:57;101481.53;;;20.71
29701;BMP280;57917;51.380;-0.176;2023-09-07T06:50:55;101488.97;;;20.95
29701;BMP280;57917;51.380;-0.176;2023-09-07T06:56:52;101485.66;;;21.87
29701;BMP280;57917;51.380;-0.176;2023-09-07T07:02:39;101469.06;;;22.61
29701;BMP280;57917;51.380;-0.176;2023-09-07T07:08:27;101470.81;;;22.81
29701;BMP280;57917;51.380;-0.176;2023-09-07T07:14:17;101468.59;;;22.71
29701;BMP280;57917;51.380;-0.176;2023-09-07T07:20:05;101466.31;;;22.85
29701;BMP280;57917;51.380;-0.176;2023-09-07T07:25:53;101467.72;;;23.22
29701;BMP280;57917;51.380;-0.176;2023-09-07T07:39:22;101464.44;;;23.75
29701;BMP280;57917;51.380;-0.176;2023-09-07T07:45:10;101464.72;;;24.39
29701;BMP280;57917;51.380;-0.176;2023-09-07T07:51:30;101461.13;;;24.69
29701;BMP280;57917;51.380;-0.176;2023-09-07T07:57:20;101455.50;;;25.00
29701;BMP280;57917;51.380;-0.176;2023-09-07T08:03:18;101457.06;;;25.43
29701;BMP280;57917;51.380;-0.176;2023-09-07T08:09:05;101450.22;;;26.04
29701;BMP280;57917;51.380;-0.176;2023-09-07T08:15:03;101451.81;;;26.05
29701;BMP280;57917;51.380;-0.176;2023-09-07T08:20:50;101454.66;;;25.90
29701;BMP280;57917;51.380;-0.176;2023-09-07T08:26:53;101457.72;;;26.14
29701;BMP280;57917;51.380;-0.176;2023-09-07T08:33:10;101454.69;;;26.49
29701;BMP280;57917;51.380;-0.176;2023-09-07T08:39:06;101452.44;;;26.58
29701;BMP280;57917;51.380;-0.176;2023-09-07T08:44:57;101442.53;;;26.72
29701;BMP280;57917;51.380;-0.176;2023-09-07T08:50:46;101443.19;;;27.02
29701;BMP280;57917;51.380;-0.176;2023-09-07T08:56:37;101438.66;;;27.17
29701;BMP280;57917;51.380;-0.176;2023-09-07T09:02:25;101441.53;;;28.02
29701;BMP280;57917;51.380;-0.176;2023-09-07T09:08:12;101430.94;;;27.80
29701;BMP280;57917;51.380;-0.176;2023-09-07T09:13:59;101425.59;;;28.01
29701;BMP280;57917;51.380;-0.176;2023-09-07T09:19:46;101426.13;;;28.59
29701;BMP280;57917;51.380;-0.176;2023-09-07T09:25:33;101433.97;;;28.64
29701;BMP280;57917;51.380;-0.176;2023-09-07T09:31:20;101418.78;;;29.01
29701;BMP280;57917;51.380;-0.176;2023-09-07T09:37:13;101408.66;;;29.12
29701;BMP280;57917;51.380;-0.176;2023-09-07T09:43:15;101411.78;;;28.90
29701;BMP280;57917;51.380;-0.176;2023-09-07T09:49:08;101405.13;;;28.63
29701;BMP280;57917;51.380;-0.176;2023-09-07T09:54:55;101395.00;;;29.02
29701;BMP280;57917;51.380;-0.176;2023-09-07T10:00:47;101388.69;;;29.40
29701;BMP280;57917;51.380;-0.176;2023-09-07T10:06:49;101388.25;;;29.62
29701;BMP280;57917;51.380;-0.176;2023-09-07T10:13:15;101380.34;;;29.92
29701;BMP280;57917;51.380;-0.176;2023-09-07T10:19:14;101386.69;;;30.37
29701;BMP280;57917;51.380;-0.176;2023-09-07T10:25:01;101376.91;;;30.39
29701;BMP280;57917;51.380;-0.176;2023-09-07T10:31:04;101369.31;;;30.61
29701;BMP280;57917;51.380;-0.176;2023-09-07T10:37:02;101368.69;;;30.87
29701;BMP280;57917;51.380;-0.176;2023-09-07T10:43:00;101359.34;;;30.40
29701;BMP280;57917;51.380;-0.176;2023-09-07T10:48:51;101361.09;;;30.68
29701;BMP280;57917;51.380;-0.176;2023-09-07T10:54:39;101351.09;;;30.44
29701;BMP280;57917;51.380;-0.176;2023-09-07T11:00:26;101350.91;;;31.38
29701;BMP280;57917;51.380;-0.176;2023-09-07T11:06:20;101348.03;;;30.82
29701;BMP280;57917;51.380;-0.176;2023-09-07T11:12:15;101348.53;;;30.23
29701;BMP280;57917;51.380;-0.176;2023-09-07T11:18:05;101337.75;;;30.97
29701;BMP280;57917;51.380;-0.176;2023-09-07T11:24:25;101329.31;;;31.47
29701;BMP280;57917;51.380;-0.176;2023-09-07T11:36:39;101323.47;;;31.12
29701;BMP280;57917;51.380;-0.176;2023-09-07T11:42:28;101327.75;;;31.17
29701;BMP280;57917;51.380;-0.176;2023-09-07T11:48:50;101305.31;;;30.95
29701;BMP280;57917;51.380;-0.176;2023-09-07T11:54:40;101309.00;;;31.12
29701;BMP280;57917;51.380;-0.176;2023-09-07T12:01:10;101296.44;;;31.21
29701;BMP280;57917;51.380;-0.176;2023-09-07T12:13:51;101286.22;;;30.55
29701;BMP280;57917;51.380;-0.176;2023-09-07T12:19:42;101288.03;;;31.02
29701;BMP280;57917;51.380;-0.176;2023-09-07T12:25:32;101279.25;;;31.47
29701;BMP280;57917;51.380;-0.176;2023-09-07T12:31:22;101276.28;;;31.38
29701;BMP280;57917;51.380;-0.176;2023-09-07T12:37:13;101273.28;;;31.55
29701;BMP280;57917;51.380;-0.176;2023-09-07T12:43:00;101274.41;;;31.32
29701;BMP280;57917;51.380;-0.176;2023-09-07T12:48:51;101270.47;;;31.33
29701;BMP280;57917;51.380;-0.176;2023-09-07T12:54:44;101271.53;;;31.38
29701;BMP280;57917;51.380;-0.176;2023-09-07T13:00:31;101261.16;;;31.79
29701;BMP280;57917;51.380;-0.176;2023-09-07T13:06:21;101253.59;;;31.64
29701;BMP280;57917;51.380;-0.176;2023-09-07T13:12:14;101263.91;;;32.02
29701;BMP280;57917;51.380;-0.176;2023-09-07T13:18:06;101238.34;;;32.32
29701;BMP280;57917;51.380;-0.176;2023-09-07T13:23:57;101234.66;;;32.19
29701;BMP280;57917;51.380;-0.176;2023-09-07T13:30:15;101237.91;;;32.14
29701;BMP280;57917;51.380;-0.176;2023-09-07T13:36:21;101235.66;;;32.09
29701;BMP280;57917;51.380;-0.176;2023-09-07T13:56:21;101228.88;;;31.94
29701;BMP280;57917;51.380;-0.176;2023-09-07T14:02:12;101228.22;;;31.33
29701;BMP280;57917;51.380;-0.176;2023-09-07T14:08:32;101223.63;;;31.80
29701;BMP280;57917;51.380;-0.176;2023-09-07T14:21:54;101211.16;;;31.98
29701;BMP280;57917;51.380;-0.176;2023-09-07T14:42:33;101185.94;;;31.87
29701;BMP280;57917;51.380;-0.176;2023-09-07T14:48:26;101187.22;;;31.79
29701;BMP280;57917;51.380;-0.176;2023-09-07T14:54:33;101176.72;;;31.78
29701;BMP280;57917;51.380;-0.176;2023-09-07T15:00:29;101186.59;;;31.72
29701;BMP280;57917;51.380;-0.176;2023-09-07T15:07:13;101174.56;;;31.66
29701;BMP280;57917;51.380;-0.176;2023-09-07T15:13:08;101171.13;;;31.85
29701;BMP280;57917;51.380;-0.176;2023-09-07T15:19:30;101169.44;;;31.68
29701;BMP280;57917;51.380;-0.176;2023-09-07T15:25:20;101167.59;;;31.61
29701;BMP280;57917;51.380;-0.176;2023-09-07T15:31:08;101155.09;;;31.60
29701;BMP280;57917;51.380;-0.176;2023-09-07T15:36:59;101153.78;;;31.45
29701;BMP280;57917;51.380;-0.176;2023-09-07T15:43:11;101149.78;;;31.50
29701;BMP280;57917;51.380;-0.176;2023-09-07T15:49:31;101151.84;;;31.42
29701;BMP280;57917;51.380;-0.176;2023-09-07T16:03:03;101136.28;;;31.39
29701;BMP280;57917;51.380;-0.176;2023-09-07T16:08:52;101125.03;;;30.81
29701;BMP280;57917;51.380;-0.176;2023-09-07T16:14:42;101128.44;;;30.59
29701;BMP280;57917;51.380;-0.176;2023-09-07T16:20:29;101137.78;;;30.61
29701;BMP280;57917;51.380;-0.176;2023-09-07T16:26:16;101128.97;;;30.47
29701;BMP280;57917;51.380;-0.176;2023-09-07T16:32:10;101127.41;;;30.46
29701;BMP280;57917;51.380;-0.176;2023-09-07T16:38:00;101136.75;;;30.78
29701;BMP280;57917;51.380;-0.176;2023-09-07T16:43:53;101129.72;;;30.81
29701;BMP280;57917;51.380;-0.176;2023-09-07T16:49:43;101128.19;;;30.76
29701;BMP280;57917;51.380;-0.176;2023-09-07T16:55:30;101131.56;;;30.57
29701;BMP280;57917;51.380;-0.176;2023-09-07T17:01:21;101130.88;;;30.50
29701;BMP280;57917;51.380;-0.176;2023-09-07T17:07:13;101139.41;;;30.52
29701;BMP280;57917;51.380;-0.176;2023-09-07T17:13:00;101146.47;;;30.53
29701;BMP280;57917;51.380;-0.176;2023-09-07T17:18:47;101153.69;;;30.36
29701;BMP280;57917;51.380;-0.176;2023-09-07T17:24:34;101151.38;;;30.31
29701;BMP280;57917;51.380;-0.176;2023-09-07T17:30:23;101161.78;;;30.10
29701;BMP280;57917;51.380;-0.176;2023-09-07T17:36:16;101167.94;;;29.70
29701;BMP280;57917;51.380;-0.176;2023-09-07T17:42:07;101166.47;;;29.62
29701;BMP280;57917;51.380;-0.176;2023-09-07T17:47:54;101163.84;;;29.41
29701;BMP280;57917;51.380;-0.176;2023-09-07T17:53:41;101173.88;;;29.54
29701;BMP280;57917;51.380;-0.176;2023-09-07T17:59:31;101175.28;;;29.11
29701;BMP280;57917;51.380;-0.176;2023-09-07T18:05:20;101172.16;;;29.16
29701;BMP280;57917;51.380;-0.176;2023-09-07T18:11:14;101180.38;;;29.09
29701;BMP280;57917;51.380;-0.176;2023-09-07T18:17:05;101186.34;;;28.73
29701;BMP280;57917;51.380;-0.176;2023-09-07T18:23:16;101184.44;;;28.66
29701;BMP280;57917;51.380;-0.176;2023-09-07T18:29:03;101197.69;;;28.57
29701;BMP280;57917;51.380;-0.176;2023-09-07T18:34:51;101196.94;;;28.22
29701;BMP280;57917;51.380;-0.176;2023-09-07T18:40:38;101205.09;;;28.01
29701;BMP280;57917;51.380;-0.176;2023-09-07T18:46:25;101211.28;;;27.73
29701;BMP280;57917;51.380;-0.176;2023-09-07T18:52:12;101210.13;;;27.71
29701;BMP280;57917;51.380;-0.176;2023-09-07T18:58:01;101214.00;;;27.77
29701;BMP280;57917;51.380;-0.176;2023-09-07T19:03:52;101224.09;;;27.69
29701;BMP280;57917;51.380;-0.176;2023-09-07T19:09:39;101229.50;;;27.55
29701;BMP280;57917;51.380;-0.176;2023-09-07T19:15:26;101240.34;;;27.48
29701;BMP280;57917;51.380;-0.176;2023-09-07T19:21:13;101245.66;;;27.24
29701;BMP280;57917;51.380;-0.176;2023-09-07T19:27:04;101249.50;;;27.09
29701;BMP280;57917;51.380;-0.176;2023-09-07T19:32:51;101267.28;;;26.99
29701;BMP280;57917;51.380;-0.176;2023-09-07T19:38:40;101259.91;;;27.00
29701;BMP280;57917;51.380;-0.176;2023-09-07T19:44:29;101259.44;;;26.87
29701;BMP280;57917;51.380;-0.176;2023-09-07T19:50:17;101268.66;;;26.72
29701;BMP280;57917;51.380;-0.176;2023-09-07T19:56:07;101278.69;;;26.65
29701;BMP280;57917;51.380;-0.176;2023-09-07T20:01:59;101277.41;;;26.52
29701;BMP280;57917;51.380;-0.176;2023-09-07T20:07:48;101285.50;;;26.48
29701;BMP280;57917;51.380;-0.176;2023-09-07T20:13:41;101302.44;;;26.35
29701;BMP280;57917;51.380;-0.176;2023-09-07T20:19:40;101306.53;;;26.18
29701;BMP280;57917;51.380;-0.176;2023-09-07T20:25:28;101313.00;;;26.07
29701;BMP280;57917;51.380;-0.176;2023-09-07T20:31:16;101311.41;;;25.99
29701;BMP280;57917;51.380;-0.176;2023-09-07T20:37:09;101297.31;;;25.90
29701;BMP280;57917;51.380;-0.176;2023-09-07T20:42:57;101297.88;;;25.73
29701;BMP280;57917;51.380;-0.176;2023-09-07T20:48:44;101290.50;;;25.73
29701;BMP280;57917;51.380;-0.176;2023-09-07T20:54:32;101293.97;;;25.70
29701;BMP280;57917;51.380;-0.176;2023-09-07T21:00:32;101293.19;;;25.70
29701;BMP280;57917;51.380;-0.176;2023-09-07T21:06:30;101289.84;;;25.54
29701;BMP280;57917;51.380;-0.176;2023-09-07T21:12:43;101284.63;;;25.38
29701;BMP280;57917;51.380;-0.176;2023-09-07T21:18:34;101277.19;;;25.32
29701;BMP280;57917;51.380;-0.176;2023-09-07T21:24:23;101275.81;;;25.19
29701;BMP280;57917;51.380;-0.176;2023-09-07T21:30:14;101289.94;;;25.05
29701;BMP280;57917;51.380;-0.176;2023-09-07T21:44:24;101292.56;;;24.76
29701;BMP280;57917;51.380;-0.176;2023-09-07T21:50:14;101287.53;;;24.52
29701;BMP280;57917;51.380;-0.176;2023-09-07T21:56:12;101279.66;;;24.47
29701;BMP280;57917;51.380;-0.176;2023-09-07T22:02:02;101274.91;;;24.40
29701;BMP280;57917;51.380;-0.176;2023-09-07T22:07:52;101280.25;;;24.37
29701;BMP280;57917;51.380;-0.176;2023-09-07T22:13:42;101271.94;;;24.26
29701;BMP280;57917;51.380;-0.176;2023-09-07T22:19:35;101280.50;;;24.09
29701;BMP280;57917;51.380;-0.176;2023-09-07T22:25:24;101272.47;;;23.94
29701;BMP280;57917;51.380;-0.176;2023-09-07T22:31:11;101276.44;;;23.81
29701;BMP280;57917;51.380;-0.176;2023-09-07T22:36:59;101280.50;;;23.71
29701;BMP280;57917;51.380;-0.176;2023-09-07T22:42:49;101280.53;;;23.56
29701;BMP280;57917;51.380;-0.176;2023-09-07T22:48:36;101271.22;;;23.53
29701;BMP280;57917;51.380;-0.176;2023-09-07T22:54:23;101280.47;;;23.37
29701;BMP280;57917;51.380;-0.176;2023-09-07T23:00:10;101286.44;;;23.42
29701;BMP280;57917;51.380;-0.176;2023-09-07T23:05:58;101271.88;;;23.31
29701;BMP280;57917;51.380;-0.176;2023-09-07T23:11:47;101286.69;;;23.22
29701;BMP280;57917;51.380;-0.176;2023-09-07T23:17:34;101288.19;;;23.19
29701;BMP280;57917;51.380;-0.176;2023-09-07T23:23:21;101294.44;;;23.08
29701;BMP280;57917;51.380;-0.176;2023-09-07T23:29:08;101299.59;;;22.97
29701;BMP280;57917;51.380;-0.176;2023-09-07T23:34:57;101310.66;;;23.08
29701;BMP280;57917;51.380;-0.176;2023-09-07T23:40:44;101308.94;;;23.00
29701;BMP280;57917;51.380;-0.176;2023-09-07T23:46:31;101306.59;;;22.98
29701;BMP280;57917;51.380;-0.176;2023-09-07T23:52:18;101307.38;;;22.99
29701;BMP280;57917;51.380;-0.176;2023-09-07T23:58:05;101302.75;;;22.99
